sensor_id;sensor_type;location;lat;lon;timestamp;P1;durP1;ratioP1;P2;durP2;ratioP2
77280;SDS011;66339;47.262;17.144;2023-12-22T00:00:51;12.52;;;6.12;;
77280;SDS011;66339;47.262;17.144;2023-12-22T00:03:18;12.00;;;6.85;;
77280;SDS011;66339;47.262;17.144;2023-12-22T00:05:45;8.35;;;6.40;;
77280;SDS011;66339;47.262;17.144;2023-12-22T00:08:12;9.15;;;6.45;;
77280;SDS011;66339;47.262;17.144;2023-12-22T00:10:39;10.82;;;6.93;;
77280;SDS011;66339;47.262;17.144;2023-12-22T00:13:06;11.12;;;6.40;;
77280;SDS011;66339;47.262;17.144;2023-12-22T00:15:33;8.60;;;6.00;;
77280;SDS011;66339;47.262;17.144;2023-12-22T00:18:03;8.75;;;6.07;;
77280;SDS011;66339;47.262;17.144;2023-12-22T00:20:34;8.32;;;5.95;;
77280;SDS011;66339;47.262;17.144;2023-12-22T00:23:09;8.55;;;5.70;;
77280;SDS011;66339;47.262;17.144;2023-12-22T00:25:36;9.55;;;5.93;;
77280;SDS011;66339;47.262;17.144;2023-12-22T00:28:06;8.82;;;5.82;;
77280;SDS011;66339;47.262;17.144;2023-12-22T00:30:36;8.57;;;5.45;;
77280;SDS011;66339;47.262;17.144;2023-12-22T00:33:03;7.53;;;5.32;;
77280;SDS011;66339;47.262;17.144;2023-12-22T00:35:36;8.48;;;5.60;;
77280;SDS011;66339;47.262;17.144;2023-12-22T00:38:03;7.43;;;5.25;;
77280;SDS011;66339;47.262;17.144;2023-12-22T00:40:35;8.63;;;6.05;;
77280;SDS011;66339;47.262;17.144;2023-12-22T00:43:02;7.47;;;5.45;;
77280;SDS011;66339;47.262;17.144;2023-12-22T00:45:32;7.93;;;5.68;;
77280;SDS011;66339;47.262;17.144;2023-12-22T00:47:59;7.90;;;5.47;;
77280;SDS011;66339;47.262;17.144;2023-12-22T00:50:26;8.55;;;5.37;;
77280;SDS011;66339;47.262;17.144;2023-12-22T00:52:53;6.85;;;5.05;;
77280;SDS011;66339;47.262;17.144;2023-12-22T00:55:20;7.43;;;5.10;;
77280;SDS011;66339;47.262;17.144;2023-12-22T00:57:51;8.07;;;5.30;;
77280;SDS011;66339;47.262;17.144;2023-12-22T01:00:18;9.40;;;5.00;;
77280;SDS011;66339;47.262;17.144;2023-12-22T01:02:48;8.70;;;4.50;;
77280;SDS011;66339;47.262;17.144;2023-12-22T01:05:18;7.62;;;4.87;;
77280;SDS011;66339;47.262;17.144;2023-12-22T01:07:45;6.90;;;5.00;;
77280;SDS011;66339;47.262;17.144;2023-12-22T01:10:16;6.82;;;4.80;;
77280;SDS011;66339;47.262;17.144;2023-12-22T01:12:47;7.10;;;4.80;;
77280;SDS011;66339;47.262;17.144;2023-12-22T01:15:15;8.07;;;5.03;;
77280;SDS011;66339;47.262;17.144;2023-12-22T01:17:42;6.68;;;4.53;;
77280;SDS011;66339;47.262;17.144;2023-12-22T01:20:13;7.70;;;5.00;;
77280;SDS011;66339;47.262;17.144;2023-12-22T01:22:43;6.45;;;4.45;;
77280;SDS011;66339;47.262;17.144;2023-12-22T01:25:13;5.25;;;4.10;;
77280;SDS011;66339;47.262;17.144;2023-12-22T01:27:44;5.97;;;4.40;;
77280;SDS011;66339;47.262;17.144;2023-12-22T01:30:11;6.05;;;4.32;;
77280;SDS011;66339;47.262;17.144;2023-12-22T01:32:38;10.65;;;4.65;;
77280;SDS011;66339;47.262;17.144;2023-12-22T01:35:11;7.15;;;4.60;;
77280;SDS011;66339;47.262;17.144;2023-12-22T01:37:41;6.90;;;4.78;;
77280;SDS011;66339;47.262;17.144;2023-12-22T01:40:16;6.30;;;4.25;;
77280;SDS011;66339;47.262;17.144;2023-12-22T01:42:43;7.82;;;4.10;;
77280;SDS011;66339;47.262;17.144;2023-12-22T01:45:13;6.47;;;3.83;;
77280;SDS011;66339;47.262;17.144;2023-12-22T01:47:40;6.00;;;4.00;;
77280;SDS011;66339;47.262;17.144;2023-12-22T01:50:14;6.30;;;4.10;;
77280;SDS011;66339;47.262;17.144;2023-12-22T01:52:45;5.57;;;3.92;;
77280;SDS011;66339;47.262;17.144;2023-12-22T01:55:15;5.35;;;4.03;;
77280;SDS011;66339;47.262;17.144;2023-12-22T01:57:44;6.40;;;3.97;;
77280;SDS011;66339;47.262;17.144;2023-12-22T02:00:13;6.87;;;4.07;;
77280;SDS011;66339;47.262;17.144;2023-12-22T02:02:41;6.50;;;3.70;;
77280;SDS011;66339;47.262;17.144;2023-12-22T02:05:11;6.43;;;3.80;;
77280;SDS011;66339;47.262;17.144;2023-12-22T02:07:40;6.18;;;3.65;;
77280;SDS011;66339;47.262;17.144;2023-12-22T02:10:14;6.05;;;3.92;;
77280;SDS011;66339;47.262;17.144;2023-12-22T02:12:44;5.30;;;4.05;;
77280;SDS011;66339;47.262;17.144;2023-12-22T02:15:12;6.45;;;3.80;;
77280;SDS011;66339;47.262;17.144;2023-12-22T02:20:21;5.43;;;3.35;;
77280;SDS011;66339;47.262;17.144;2023-12-22T02:22:57;5.22;;;3.47;;
77280;SDS011;66339;47.262;17.144;2023-12-22T02:25:27;4.95;;;3.20;;
77280;SDS011;66339;47.262;17.144;2023-12-22T02:27:58;5.10;;;3.67;;
77280;SDS011;66339;47.262;17.144;2023-12-22T02:33:31;5.45;;;3.85;;
77280;SDS011;66339;47.262;17.144;2023-12-22T02:36:06;5.28;;;3.55;;
77280;SDS011;66339;47.262;17.144;2023-12-22T02:38:42;4.32;;;3.42;;
77280;SDS011;66339;47.262;17.144;2023-12-22T02:41:11;4.68;;;3.08;;
77280;SDS011;66339;47.262;17.144;2023-12-22T02:43:42;7.35;;;3.17;;
77280;SDS011;66339;47.262;17.144;2023-12-22T02:46:16;4.62;;;3.08;;
77280;SDS011;66339;47.262;17.144;2023-12-22T02:48:43;5.12;;;3.30;;
77280;SDS011;66339;47.262;17.144;2023-12-22T02:51:12;4.70;;;3.20;;
77280;SDS011;66339;47.262;17.144;2023-12-22T02:53:42;4.25;;;2.95;;
77280;SDS011;66339;47.262;17.144;2023-12-22T02:56:09;3.70;;;3.00;;
77280;SDS011;66339;47.262;17.144;2023-12-22T02:58:36;4.15;;;3.10;;
77280;SDS011;66339;47.262;17.144;2023-12-22T03:01:06;4.62;;;3.20;;
77280;SDS011;66339;47.262;17.144;2023-12-22T03:03:33;3.92;;;3.00;;
77280;SDS011;66339;47.262;17.144;2023-12-22T03:06:00;4.60;;;3.30;;
77280;SDS011;66339;47.262;17.144;2023-12-22T03:08:30;5.32;;;3.15;;
77280;SDS011;66339;47.262;17.144;2023-12-22T03:10:57;4.07;;;2.90;;
77280;SDS011;66339;47.262;17.144;2023-12-22T03:13:30;4.05;;;3.00;;
77280;SDS011;66339;47.262;17.144;2023-12-22T03:16:00;4.70;;;3.08;;
77280;SDS011;66339;47.262;17.144;2023-12-22T03:18:34;4.25;;;2.83;;
77280;SDS011;66339;47.262;17.144;2023-12-22T03:21:05;5.70;;;2.95;;
77280;SDS011;66339;47.262;17.144;2023-12-22T03:23:32;3.80;;;2.72;;
77280;SDS011;66339;47.262;17.144;2023-12-22T03:26:04;4.85;;;3.00;;
77280;SDS011;66339;47.262;17.144;2023-12-22T03:28:35;4.07;;;2.92;;
77280;SDS011;66339;47.262;17.144;2023-12-22T03:31:06;3.67;;;2.65;;
77280;SDS011;66339;47.262;17.144;2023-12-22T03:33:40;3.75;;;2.72;;
77280;SDS011;66339;47.262;17.144;2023-12-22T03:36:08;5.28;;;2.97;;
77280;SDS011;66339;47.262;17.144;2023-12-22T03:38:35;3.35;;;2.80;;
77280;SDS011;66339;47.262;17.144;2023-12-22T03:41:02;4.18;;;2.80;;
77280;SDS011;66339;47.262;17.144;2023-12-22T03:43:32;5.90;;;2.85;;
77280;SDS011;66339;47.262;17.144;2023-12-22T03:46:02;3.40;;;2.53;;
77280;SDS011;66339;47.262;17.144;2023-12-22T03:48:29;4.10;;;2.80;;
77280;SDS011;66339;47.262;17.144;2023-12-22T03:50:58;4.50;;;2.70;;
77280;SDS011;66339;47.262;17.144;2023-12-22T03:53:29;3.67;;;2.47;;
77280;SDS011;66339;47.262;17.144;2023-12-22T03:55:59;4.47;;;2.60;;
77280;SDS011;66339;47.262;17.144;2023-12-22T03:58:26;2.97;;;2.30;;
77280;SDS011;66339;47.262;17.144;2023-12-22T04:00:56;2.95;;;2.37;;
77280;SDS011;66339;47.262;17.144;2023-12-22T04:03:23;3.80;;;2.60;;
77280;SDS011;66339;47.262;17.144;2023-12-22T04:05:54;3.10;;;2.30;;
77280;SDS011;66339;47.262;17.144;2023-12-22T04:08:26;3.85;;;2.65;;
77280;SDS011;66339;47.262;17.144;2023-12-22T04:10:53;3.62;;;2.60;;
77280;SDS011;66339;47.262;17.144;2023-12-22T04:13:27;3.22;;;2.40;;
77280;SDS011;66339;47.262;17.144;2023-12-22T04:15:54;3.03;;;2.20;;
77280;SDS011;66339;47.262;17.144;2023-12-22T04:18:21;2.58;;;2.17;;
77280;SDS011;66339;47.262;17.144;2023-12-22T04:20:48;3.87;;;2.00;;
77280;SDS011;66339;47.262;17.144;2023-12-22T04:23:18;4.45;;;2.20;;
77280;SDS011;66339;47.262;17.144;2023-12-22T04:25:48;3.67;;;2.28;;
77280;SDS011;66339;47.262;17.144;2023-12-22T04:28:16;2.87;;;2.20;;
77280;SDS011;66339;47.262;17.144;2023-12-22T04:30:46;3.00;;;2.12;;
77280;SDS011;66339;47.262;17.144;2023-12-22T04:33:13;3.17;;;2.22;;
77280;SDS011;66339;47.262;17.144;2023-12-22T04:35:40;3.40;;;2.17;;
77280;SDS011;66339;47.262;17.144;2023-12-22T04:38:11;4.12;;;2.53;;
77280;SDS011;66339;47.262;17.144;2023-12-22T04:40:44;2.75;;;1.98;;
77280;SDS011;66339;47.262;17.144;2023-12-22T04:43:11;1.85;;;1.65;;
77280;SDS011;66339;47.262;17.144;2023-12-22T04:45:38;2.67;;;1.98;;
77280;SDS011;66339;47.262;17.144;2023-12-22T04:48:05;3.33;;;2.08;;
77280;SDS011;66339;47.262;17.144;2023-12-22T04:50:36;2.97;;;2.00;;
77280;SDS011;66339;47.262;17.144;2023-12-22T04:53:03;3.12;;;2.08;;
77280;SDS011;66339;47.262;17.144;2023-12-22T04:55:33;3.33;;;2.22;;
77280;SDS011;66339;47.262;17.144;2023-12-22T04:58:03;2.90;;;1.90;;
77280;SDS011;66339;47.262;17.144;2023-12-22T05:00:30;2.40;;;1.87;;
77280;SDS011;66339;47.262;17.144;2023-12-22T05:03:04;3.33;;;2.10;;
77280;SDS011;66339;47.262;17.144;2023-12-22T05:05:41;3.10;;;1.95;;
77280;SDS011;66339;47.262;17.144;2023-12-22T05:08:12;2.67;;;1.90;;
77280;SDS011;66339;47.262;17.144;2023-12-22T05:10:39;3.28;;;1.90;;
77280;SDS011;66339;47.262;17.144;2023-12-22T05:13:06;4.25;;;2.12;;
77280;SDS011;66339;47.262;17.144;2023-12-22T05:15:39;2.72;;;1.77;;
77280;SDS011;66339;47.262;17.144;2023-12-22T05:18:10;3.00;;;1.92;;
77280;SDS011;66339;47.262;17.144;2023-12-22T05:20:37;3.65;;;2.05;;
77280;SDS011;66339;47.262;17.144;2023-12-22T05:23:08;1.67;;;1.48;;
77280;SDS011;66339;47.262;17.144;2023-12-22T05:25:35;2.37;;;1.70;;
77280;SDS011;66339;47.262;17.144;2023-12-22T05:28:06;3.00;;;1.90;;
77280;SDS011;66339;47.262;17.144;2023-12-22T05:30:33;2.62;;;1.87;;
77280;SDS011;66339;47.262;17.144;2023-12-22T05:33:06;2.53;;;1.90;;
77280;SDS011;66339;47.262;17.144;2023-12-22T05:35:36;2.10;;;1.62;;
77280;SDS011;66339;47.262;17.144;2023-12-22T05:38:10;2.33;;;1.70;;
77280;SDS011;66339;47.262;17.144;2023-12-22T05:40:37;2.12;;;1.70;;
77280;SDS011;66339;47.262;17.144;2023-12-22T05:43:07;2.35;;;1.80;;
77280;SDS011;66339;47.262;17.144;2023-12-22T05:45:34;1.67;;;1.40;;
77280;SDS011;66339;47.262;17.144;2023-12-22T05:48:04;2.53;;;1.80;;
77280;SDS011;66339;47.262;17.144;2023-12-22T05:50:34;2.55;;;1.65;;
77280;SDS011;66339;47.262;17.144;2023-12-22T05:53:04;2.17;;;1.80;;
77280;SDS011;66339;47.262;17.144;2023-12-22T05:55:32;2.10;;;1.45;;
77280;SDS011;66339;47.262;17.144;2023-12-22T05:57:59;1.98;;;1.48;;
77280;SDS011;66339;47.262;17.144;2023-12-22T06:00:26;2.37;;;1.52;;
77280;SDS011;66339;47.262;17.144;2023-12-22T06:02:53;2.15;;;1.55;;
77280;SDS011;66339;47.262;17.144;2023-12-22T06:05:20;2.17;;;1.62;;
77280;SDS011;66339;47.262;17.144;2023-12-22T06:07:48;1.65;;;1.40;;
77280;SDS011;66339;47.262;17.144;2023-12-22T06:10:18;2.00;;;1.45;;
77280;SDS011;66339;47.262;17.144;2023-12-22T06:12:45;2.20;;;1.55;;
77280;SDS011;66339;47.262;17.144;2023-12-22T06:15:18;1.83;;;1.37;;
77280;SDS011;66339;47.262;17.144;2023-12-22T06:17:48;4.30;;;1.48;;
77280;SDS011;66339;47.262;17.144;2023-12-22T06:20:16;1.90;;;1.50;;
77280;SDS011;66339;47.262;17.144;2023-12-22T06:22:46;1.83;;;1.40;;
77280;SDS011;66339;47.262;17.144;2023-12-22T06:25:14;1.27;;;1.17;;
77280;SDS011;66339;47.262;17.144;2023-12-22T06:27:45;2.28;;;1.52;;
77280;SDS011;66339;47.262;17.144;2023-12-22T06:30:12;1.73;;;1.50;;
77280;SDS011;66339;47.262;17.144;2023-12-22T06:32:39;2.37;;;1.62;;
77280;SDS011;66339;47.262;17.144;2023-12-22T06:35:10;2.30;;;1.70;;
77280;SDS011;66339;47.262;17.144;2023-12-22T06:37:43;2.70;;;1.90;;
77280;SDS011;66339;47.262;17.144;2023-12-22T06:40:13;3.25;;;1.75;;
77280;SDS011;66339;47.262;17.144;2023-12-22T06:42:41;4.18;;;1.92;;
77280;SDS011;66339;47.262;17.144;2023-12-22T06:45:11;10.48;;;7.05;;
77280;SDS011;66339;47.262;17.144;2023-12-22T06:50:11;9.13;;;6.65;;
77280;SDS011;66339;47.262;17.144;2023-12-22T06:52:38;7.72;;;6.28;;
77280;SDS011;66339;47.262;17.144;2023-12-22T06:55:09;7.90;;;5.60;;
77280;SDS011;66339;47.262;17.144;2023-12-22T06:57:36;8.13;;;5.53;;
77280;SDS011;66339;47.262;17.144;2023-12-22T07:00:08;6.78;;;4.75;;
77280;SDS011;66339;47.262;17.144;2023-12-22T07:02:38;7.28;;;4.60;;
77280;SDS011;66339;47.262;17.144;2023-12-22T07:10:08;8.75;;;4.22;;
77280;SDS011;66339;47.262;17.144;2023-12-22T07:12:36;8.93;;;4.95;;
77280;SDS011;66339;47.262;17.144;2023-12-22T07:15:11;7.47;;;4.33;;
77280;SDS011;66339;47.262;17.144;2023-12-22T07:17:38;9.40;;;4.30;;
77280;SDS011;66339;47.262;17.144;2023-12-22T07:20:05;9.48;;;4.85;;
77280;SDS011;66339;47.262;17.144;2023-12-22T07:22:33;7.30;;;3.97;;
77280;SDS011;66339;47.262;17.144;2023-12-22T07:24:59;11.38;;;4.25;;
77280;SDS011;66339;47.262;17.144;2023-12-22T07:27:26;9.63;;;4.25;;
77280;SDS011;66339;47.262;17.144;2023-12-22T07:29:54;6.12;;;3.33;;
77280;SDS011;66339;47.262;17.144;2023-12-22T07:32:23;5.68;;;2.53;;
77280;SDS011;66339;47.262;17.144;2023-12-22T07:34:50;9.48;;;3.00;;
77280;SDS011;66339;47.262;17.144;2023-12-22T07:37:17;7.60;;;3.10;;
77280;SDS011;66339;47.262;17.144;2023-12-22T07:39:48;9.23;;;3.45;;
77280;SDS011;66339;47.262;17.144;2023-12-22T07:42:15;6.95;;;3.33;;
77280;SDS011;66339;47.262;17.144;2023-12-22T07:44:42;10.93;;;3.60;;
77280;SDS011;66339;47.262;17.144;2023-12-22T07:47:14;11.63;;;3.37;;
77280;SDS011;66339;47.262;17.144;2023-12-22T07:49:44;9.38;;;3.37;;
77280;SDS011;66339;47.262;17.144;2023-12-22T07:52:13;12.10;;;3.90;;
77280;SDS011;66339;47.262;17.144;2023-12-22T07:54:40;12.45;;;3.65;;
77280;SDS011;66339;47.262;17.144;2023-12-22T07:57:12;8.80;;;3.00;;
77280;SDS011;66339;47.262;17.144;2023-12-22T07:59:39;6.97;;;3.37;;
77280;SDS011;66339;47.262;17.144;2023-12-22T08:02:05;9.90;;;2.90;;
77280;SDS011;66339;47.262;17.144;2023-12-22T08:04:33;6.85;;;3.08;;
77280;SDS011;66339;47.262;17.144;2023-12-22T08:07:00;12.35;;;3.40;;
77280;SDS011;66339;47.262;17.144;2023-12-22T08:09:33;6.15;;;3.20;;
77280;SDS011;66339;47.262;17.144;2023-12-22T08:11:59;9.55;;;3.25;;
77280;SDS011;66339;47.262;17.144;2023-12-22T08:14:30;10.63;;;3.37;;
77280;SDS011;66339;47.262;17.144;2023-12-22T08:17:00;6.60;;;2.90;;
77280;SDS011;66339;47.262;17.144;2023-12-22T08:19:27;9.05;;;3.30;;
77280;SDS011;66339;47.262;17.144;2023-12-22T08:21:57;12.68;;;3.20;;
77280;SDS011;66339;47.262;17.144;2023-12-22T08:24:27;6.97;;;3.10;;
77280;SDS011;66339;47.262;17.144;2023-12-22T08:26:55;5.28;;;2.90;;
77280;SDS011;66339;47.262;17.144;2023-12-22T08:29:25;5.87;;;2.78;;
77280;SDS011;66339;47.262;17.144;2023-12-22T08:31:54;12.07;;;3.10;;
77280;SDS011;66339;47.262;17.144;2023-12-22T08:34:21;5.68;;;2.62;;
77280;SDS011;66339;47.262;17.144;2023-12-22T08:36:48;7.78;;;2.90;;
77280;SDS011;66339;47.262;17.144;2023-12-22T08:39:15;11.60;;;2.67;;
77280;SDS011;66339;47.262;17.144;2023-12-22T08:41:48;15.02;;;2.50;;
77280;SDS011;66339;47.262;17.144;2023-12-22T08:44:15;7.53;;;2.37;;
77280;SDS011;66339;47.262;17.144;2023-12-22T08:46:42;14.13;;;2.83;;
77280;SDS011;66339;47.262;17.144;2023-12-22T08:49:12;11.38;;;2.90;;
77280;SDS011;66339;47.262;17.144;2023-12-22T08:51:39;7.68;;;2.50;;
77280;SDS011;66339;47.262;17.144;2023-12-22T08:54:10;8.00;;;2.78;;
77280;SDS011;66339;47.262;17.144;2023-12-22T08:56:36;4.55;;;2.30;;
77280;SDS011;66339;47.262;17.144;2023-12-22T08:59:03;7.68;;;2.58;;
77280;SDS011;66339;47.262;17.144;2023-12-22T09:01:33;11.18;;;2.90;;
77280;SDS011;66339;47.262;17.144;2023-12-22T09:04:04;4.50;;;2.20;;
77280;SDS011;66339;47.262;17.144;2023-12-22T09:06:37;7.50;;;2.28;;
77280;SDS011;66339;47.262;17.144;2023-12-22T09:09:04;5.07;;;2.33;;
77280;SDS011;66339;47.262;17.144;2023-12-22T09:11:31;7.37;;;2.08;;
77280;SDS011;66339;47.262;17.144;2023-12-22T09:16:27;7.70;;;2.67;;
77280;SDS011;66339;47.262;17.144;2023-12-22T09:18:54;7.87;;;2.80;;
77280;SDS011;66339;47.262;17.144;2023-12-22T09:21:24;5.35;;;2.60;;
77280;SDS011;66339;47.262;17.144;2023-12-22T09:23:54;7.97;;;2.22;;
77280;SDS011;66339;47.262;17.144;2023-12-22T09:26:27;5.10;;;2.40;;
77280;SDS011;66339;47.262;17.144;2023-12-22T09:28:58;6.68;;;2.50;;
77280;SDS011;66339;47.262;17.144;2023-12-22T09:31:25;5.40;;;2.28;;
77280;SDS011;66339;47.262;17.144;2023-12-22T09:33:55;6.85;;;2.45;;
77280;SDS011;66339;47.262;17.144;2023-12-22T09:36:26;3.92;;;2.10;;
77280;SDS011;66339;47.262;17.144;2023-12-22T09:38:53;4.40;;;2.10;;
77280;SDS011;66339;47.262;17.144;2023-12-22T09:41:19;3.25;;;1.60;;
77280;SDS011;66339;47.262;17.144;2023-12-22T09:43:49;6.47;;;2.20;;
77280;SDS011;66339;47.262;17.144;2023-12-22T09:46:18;4.28;;;1.67;;
77280;SDS011;66339;47.262;17.144;2023-12-22T09:48:52;8.15;;;3.03;;
77280;SDS011;66339;47.262;17.144;2023-12-22T09:51:20;3.95;;;1.98;;
77280;SDS011;66339;47.262;17.144;2023-12-22T09:53:47;4.95;;;2.00;;
77280;SDS011;66339;47.262;17.144;2023-12-22T09:56:19;3.62;;;2.00;;
77280;SDS011;66339;47.262;17.144;2023-12-22T09:58:49;7.10;;;2.00;;
77280;SDS011;66339;47.262;17.144;2023-12-22T10:03:48;2.40;;;1.67;;
77280;SDS011;66339;47.262;17.144;2023-12-22T10:06:18;6.90;;;1.90;;
77280;SDS011;66339;47.262;17.144;2023-12-22T10:08:46;5.15;;;1.83;;
77280;SDS011;66339;47.262;17.144;2023-12-22T10:11:17;3.15;;;1.92;;
77280;SDS011;66339;47.262;17.144;2023-12-22T10:13:54;5.15;;;1.90;;
77280;SDS011;66339;47.262;17.144;2023-12-22T10:16:25;7.82;;;1.90;;
77280;SDS011;66339;47.262;17.144;2023-12-22T10:18:59;3.00;;;1.73;;
77280;SDS011;66339;47.262;17.144;2023-12-22T10:21:31;5.87;;;1.65;;
77280;SDS011;66339;47.262;17.144;2023-12-22T10:24:04;6.22;;;1.73;;
77280;SDS011;66339;47.262;17.144;2023-12-22T10:29:06;2.83;;;1.73;;
77280;SDS011;66339;47.262;17.144;2023-12-22T10:31:40;5.75;;;1.75;;
77280;SDS011;66339;47.262;17.144;2023-12-22T10:34:07;4.65;;;1.48;;
77280;SDS011;66339;47.262;17.144;2023-12-22T10:36:35;6.93;;;1.77;;
77280;SDS011;66339;47.262;17.144;2023-12-22T10:39:04;4.78;;;1.80;;
77280;SDS011;66339;47.262;17.144;2023-12-22T10:41:31;7.20;;;2.00;;
77280;SDS011;66339;47.262;17.144;2023-12-22T10:44:02;5.85;;;1.60;;
77280;SDS011;66339;47.262;17.144;2023-12-22T10:46:35;8.15;;;1.70;;
77280;SDS011;66339;47.262;17.144;2023-12-22T10:49:03;4.87;;;2.60;;
77280;SDS011;66339;47.262;17.144;2023-12-22T10:51:41;4.18;;;1.75;;
77280;SDS011;66339;47.262;17.144;2023-12-22T10:54:11;3.40;;;1.50;;
77280;SDS011;66339;47.262;17.144;2023-12-22T10:56:41;4.72;;;1.50;;
77280;SDS011;66339;47.262;17.144;2023-12-22T10:59:11;5.10;;;1.60;;
77280;SDS011;66339;47.262;17.144;2023-12-22T11:01:39;3.40;;;1.58;;
77280;SDS011;66339;47.262;17.144;2023-12-22T11:04:07;5.12;;;1.40;;
77280;SDS011;66339;47.262;17.144;2023-12-22T11:06:36;10.38;;;1.95;;
77280;SDS011;66339;47.262;17.144;2023-12-22T11:09:07;5.93;;;1.67;;
77280;SDS011;66339;47.262;17.144;2023-12-22T11:11:39;3.53;;;1.50;;
77280;SDS011;66339;47.262;17.144;2023-12-22T11:14:13;9.55;;;1.60;;
77280;SDS011;66339;47.262;17.144;2023-12-22T11:16:41;4.43;;;1.55;;
77280;SDS011;66339;47.262;17.144;2023-12-22T11:19:12;4.87;;;1.70;;
77280;SDS011;66339;47.262;17.144;2023-12-22T11:21:45;3.65;;;1.40;;
77280;SDS011;66339;47.262;17.144;2023-12-22T11:24:19;4.40;;;1.30;;
77280;SDS011;66339;47.262;17.144;2023-12-22T11:26:48;7.47;;;1.60;;
77280;SDS011;66339;47.262;17.144;2023-12-22T11:29:21;33.55;;;2.12;;
77280;SDS011;66339;47.262;17.144;2023-12-22T11:31:51;5.32;;;1.50;;
77280;SDS011;66339;47.262;17.144;2023-12-22T11:34:25;17.73;;;1.98;;
77280;SDS011;66339;47.262;17.144;2023-12-22T11:36:59;3.12;;;1.50;;
77280;SDS011;66339;47.262;17.144;2023-12-22T11:39:31;4.45;;;1.45;;
77280;SDS011;66339;47.262;17.144;2023-12-22T11:42:01;2.03;;;1.10;;
77280;SDS011;66339;47.262;17.144;2023-12-22T11:44:36;5.35;;;1.37;;
77280;SDS011;66339;47.262;17.144;2023-12-22T11:47:10;8.45;;;2.70;;
77280;SDS011;66339;47.262;17.144;2023-12-22T11:49:40;1.60;;;1.15;;
77280;SDS011;66339;47.262;17.144;2023-12-22T11:52:16;5.70;;;1.40;;
77280;SDS011;66339;47.262;17.144;2023-12-22T11:59:54;4.20;;;1.40;;
77280;SDS011;66339;47.262;17.144;2023-12-22T12:02:28;4.00;;;1.27;;
77280;SDS011;66339;47.262;17.144;2023-12-22T12:05:00;9.02;;;1.17;;
77280;SDS011;66339;47.262;17.144;2023-12-22T12:07:43;4.30;;;1.20;;
77280;SDS011;66339;47.262;17.144;2023-12-22T12:13:21;3.37;;;1.30;;
77280;SDS011;66339;47.262;17.144;2023-12-22T12:15:50;3.53;;;1.10;;
77280;SDS011;66339;47.262;17.144;2023-12-22T12:18:22;3.95;;;1.20;;
77280;SDS011;66339;47.262;17.144;2023-12-22T12:20:55;2.60;;;1.02;;
77280;SDS011;66339;47.262;17.144;2023-12-22T12:23:26;1.92;;;1.00;;
77280;SDS011;66339;47.262;17.144;2023-12-22T12:25:57;1.52;;;1.00;;
77280;SDS011;66339;47.262;17.144;2023-12-22T12:28:31;1.75;;;1.10;;
77280;SDS011;66339;47.262;17.144;2023-12-22T12:31:04;3.17;;;1.00;;
77280;SDS011;66339;47.262;17.144;2023-12-22T12:33:35;3.17;;;1.35;;
77280;SDS011;66339;47.262;17.144;2023-12-22T12:36:02;1.80;;;0.90;;
77280;SDS011;66339;47.262;17.144;2023-12-22T12:38:45;3.65;;;1.08;;
77280;SDS011;66339;47.262;17.144;2023-12-22T12:41:35;3.22;;;1.10;;
77280;SDS011;66339;47.262;17.144;2023-12-22T12:44:10;3.72;;;1.30;;
77280;SDS011;66339;47.262;17.144;2023-12-22T12:46:40;1.30;;;1.00;;
77280;SDS011;66339;47.262;17.144;2023-12-22T12:49:10;1.12;;;0.90;;
77280;SDS011;66339;47.262;17.144;2023-12-22T12:51:39;2.25;;;1.00;;
77280;SDS011;66339;47.262;17.144;2023-12-22T12:54:13;2.37;;;1.00;;
77280;SDS011;66339;47.262;17.144;2023-12-22T12:56:41;3.72;;;1.20;;
77280;SDS011;66339;47.262;17.144;2023-12-22T12:59:12;4.47;;;1.30;;
77280;SDS011;66339;47.262;17.144;2023-12-22T13:01:41;3.15;;;1.08;;
77280;SDS011;66339;47.262;17.144;2023-12-22T13:04:13;4.82;;;1.62;;
77280;SDS011;66339;47.262;17.144;2023-12-22T13:06:49;4.90;;;1.30;;
77280;SDS011;66339;47.262;17.144;2023-12-22T13:09:17;1.83;;;1.52;;
77280;SDS011;66339;47.262;17.144;2023-12-22T13:11:45;2.85;;;1.27;;
77280;SDS011;66339;47.262;17.144;2023-12-22T13:14:21;4.55;;;1.20;;
77280;SDS011;66339;47.262;17.144;2023-12-22T13:16:49;7.62;;;1.40;;
77280;SDS011;66339;47.262;17.144;2023-12-22T13:19:18;3.90;;;1.10;;
77280;SDS011;66339;47.262;17.144;2023-12-22T13:21:48;3.35;;;1.20;;
77280;SDS011;66339;47.262;17.144;2023-12-22T13:24:16;6.32;;;1.17;;
77280;SDS011;66339;47.262;17.144;2023-12-22T13:26:46;1.85;;;1.12;;
77280;SDS011;66339;47.262;17.144;2023-12-22T13:29:19;6.10;;;1.00;;
77280;SDS011;66339;47.262;17.144;2023-12-22T13:31:46;6.10;;;1.58;;
77280;SDS011;66339;47.262;17.144;2023-12-22T13:34:18;2.83;;;1.23;;
77280;SDS011;66339;47.262;17.144;2023-12-22T13:36:45;5.78;;;1.33;;
77280;SDS011;66339;47.262;17.144;2023-12-22T13:39:13;4.43;;;1.40;;
77280;SDS011;66339;47.262;17.144;2023-12-22T13:41:41;2.83;;;1.15;;
77280;SDS011;66339;47.262;17.144;2023-12-22T13:44:12;1.45;;;0.80;;
77280;SDS011;66339;47.262;17.144;2023-12-22T13:46:43;2.00;;;1.27;;
77280;SDS011;66339;47.262;17.144;2023-12-22T13:51:43;7.57;;;1.48;;
77280;SDS011;66339;47.262;17.144;2023-12-22T13:54:14;3.23;;;1.17;;
77280;SDS011;66339;47.262;17.144;2023-12-22T13:56:41;10.43;;;1.90;;
77280;SDS011;66339;47.262;17.144;2023-12-22T13:59:11;4.10;;;1.60;;
77280;SDS011;66339;47.262;17.144;2023-12-22T14:01:38;6.18;;;1.87;;
77280;SDS011;66339;47.262;17.144;2023-12-22T14:04:05;11.18;;;1.77;;
77280;SDS011;66339;47.262;17.144;2023-12-22T14:06:32;5.30;;;1.52;;
77280;SDS011;66339;47.262;17.144;2023-12-22T14:08:59;5.55;;;1.60;;
77280;SDS011;66339;47.262;17.144;2023-12-22T14:11:25;7.43;;;1.85;;
77280;SDS011;66339;47.262;17.144;2023-12-22T14:13:58;8.25;;;1.50;;
77280;SDS011;66339;47.262;17.144;2023-12-22T14:16:25;10.77;;;1.92;;
77280;SDS011;66339;47.262;17.144;2023-12-22T14:18:55;4.03;;;1.15;;
77280;SDS011;66339;47.262;17.144;2023-12-22T14:21:23;8.98;;;1.50;;
77280;SDS011;66339;47.262;17.144;2023-12-22T14:23:55;7.57;;;1.40;;
77280;SDS011;66339;47.262;17.144;2023-12-22T14:26:22;5.47;;;1.20;;
77280;SDS011;66339;47.262;17.144;2023-12-22T14:28:52;16.17;;;2.03;;
77280;SDS011;66339;47.262;17.144;2023-12-22T14:31:22;3.45;;;1.40;;
77280;SDS011;66339;47.262;17.144;2023-12-22T14:33:49;2.85;;;1.20;;
77280;SDS011;66339;47.262;17.144;2023-12-22T14:36:21;8.20;;;1.60;;
77280;SDS011;66339;47.262;17.144;2023-12-22T14:38:47;5.43;;;1.17;;
77280;SDS011;66339;47.262;17.144;2023-12-22T14:41:14;3.92;;;1.33;;
77280;SDS011;66339;47.262;17.144;2023-12-22T14:43:44;1.75;;;1.10;;
77280;SDS011;66339;47.262;17.144;2023-12-22T14:46:14;5.95;;;1.42;;
77280;SDS011;66339;47.262;17.144;2023-12-22T14:48:45;2.37;;;1.40;;
77280;SDS011;66339;47.262;17.144;2023-12-22T14:51:12;1.92;;;1.20;;
77280;SDS011;66339;47.262;17.144;2023-12-22T14:53:39;7.10;;;1.70;;
77280;SDS011;66339;47.262;17.144;2023-12-22T14:56:11;4.30;;;1.27;;
77280;SDS011;66339;47.262;17.144;2023-12-22T14:58:38;2.90;;;1.25;;
77280;SDS011;66339;47.262;17.144;2023-12-22T15:01:12;6.12;;;1.70;;
77280;SDS011;66339;47.262;17.144;2023-12-22T15:03:42;3.53;;;1.45;;
77280;SDS011;66339;47.262;17.144;2023-12-22T15:06:12;4.00;;;1.20;;
77280;SDS011;66339;47.262;17.144;2023-12-22T15:08:44;7.68;;;2.17;;
77280;SDS011;66339;47.262;17.144;2023-12-22T15:11:14;5.55;;;1.60;;
77280;SDS011;66339;47.262;17.144;2023-12-22T15:13:50;7.05;;;1.52;;
77280;SDS011;66339;47.262;17.144;2023-12-22T15:16:17;3.40;;;1.23;;
77280;SDS011;66339;47.262;17.144;2023-12-22T15:18:49;4.72;;;1.25;;